Time;durP1;ratioP1;P1;durP2;ratioP2;P2;SDS_P1;SDS_P2;PMS_P1;PMS_P2;Temp;Humidity;BMP_temperature;BMP_pressure;BME280_temperature;BME280_humidity;BME280_pressure;Samples;Min_cycle;Max_cycle;Signal;HPM_P1;HPM_P2
2023/05/31 00:00:07;;;;;;;17.77;13.30;;;12.20;99.90;;;;;;5119273;28;20894;-60
2023/05/31 00:02:34;;;;;;;17.07;12.40;;;12.20;99.90;;;;;;5118878;28;20491;-60
2023/05/31 00:05:01;;;;;;;16.07;13.50;;;12.20;99.90;;;;;;5119045;28;20459;-60
2023/05/31 00:07:29;;;;;;;14.40;12.40;;;12.10;99.90;;;;;;5119534;28;20459;-61
2023/05/31 00:09:56;;;;;;;16.60;13.43;;;12.10;99.90;;;;;;5119428;28;20491;-60
2023/05/31 00:12:23;;;;;;;19.17;13.37;;;12.10;99.90;;;;;;5119648;28;20546;-60
2023/05/31 00:14:50;;;;;;;18.57;13.30;;;12.10;99.90;;;;;;5118975;28;20487;-61
2023/05/31 00:17:19;;;;;;;15.60;12.27;;;12.10;99.90;;;;;;5119030;28;20901;-60
2023/05/31 00:19:46;;;;;;;17.43;11.93;;;12.10;99.90;;;;;;5119294;28;20456;-60
2023/05/31 00:22:16;;;;;;;17.07;12.17;;;12.00;99.90;;;;;;5119153;28;20770;-60
2023/05/31 00:24:43;;;;;;;16.83;11.50;;;12.00;99.90;;;;;;5118495;28;20566;-60
2023/05/31 00:27:11;;;;;;;18.30;12.53;;;12.00;99.90;;;;;;5118849;28;20463;-60
2023/05/31 00:29:38;;;;;;;18.50;13.10;;;12.00;99.90;;;;;;5118949;28;20483;-61
2023/05/31 00:32:06;;;;;;;19.33;12.17;;;11.90;99.90;;;;;;5118825;28;20464;-61
2023/05/31 00:34:34;;;;;;;15.40;12.23;;;11.90;99.90;;;;;;5118855;28;20755;-60
2023/05/31 00:37:01;;;;;;;14.37;12.73;;;11.90;99.90;;;;;;5118666;28;20524;-60
2023/05/31 00:39:29;;;;;;;15.93;12.03;;;11.90;99.90;;;;;;5118401;28;20464;-61
2023/05/31 00:41:56;;;;;;;13.23;11.63;;;11.90;99.90;;;;;;5118623;28;20502;-60
2023/05/31 00:44:23;;;;;;;16.87;13.27;;;11.90;99.90;;;;;;5118981;28;20459;-60
2023/05/31 00:46:51;;;;;;;15.43;12.37;;;11.90;99.90;;;;;;5118397;28;20467;-60
2023/05/31 00:49:19;;;;;;;19.97;12.80;;;11.90;99.90;;;;;;5118517;28;20812;-60
2023/05/31 00:51:48;;;;;;;15.47;11.50;;;11.80;99.90;;;;;;5118337;28;20469;-60
2023/05/31 00:54:15;;;;;;;17.33;12.53;;;11.80;99.90;;;;;;5118352;28;20446;-60
2023/05/31 00:56:42;;;;;;;17.10;12.70;;;11.80;99.90;;;;;;5117868;28;20477;-60
2023/05/31 00:59:09;;;;;;;13.83;11.53;;;11.70;99.90;;;;;;5118232;28;20470;-60
2023/05/31 01:01:37;;;;;;;16.10;12.67;;;11.70;99.90;;;;;;5117996;28;20475;-60
2023/05/31 01:04:04;;;;;;;15.90;12.87;;;11.70;99.90;;;;;;5118561;28;20466;-61
2023/05/31 01:06:32;;;;;;;17.63;12.80;;;11.60;99.90;;;;;;5118324;28;20528;-61
2023/05/31 01:09:04;;;;;;;16.67;12.60;;;11.60;99.90;;;;;;5118059;28;20474;-61
2023/05/31 01:11:44;;;;;;;18.20;13.10;;;11.60;99.90;;;;;;5117806;28;20491;-61
2023/05/31 01:14:21;;;;;;;16.17;12.33;;;11.60;99.90;;;;;;5118172;28;20467;-61
2023/05/31 01:16:54;;;;;;;14.53;11.60;;;11.50;99.90;;;;;;5118210;28;20498;-60
2023/05/31 01:19:33;;;;;;;15.03;12.70;;;11.50;99.90;;;;;;5118126;28;20483;-61
2023/05/31 01:22:14;;;;;;;16.67;12.13;;;11.50;99.90;;;;;;5118030;28;20739;-60
2023/05/31 01:25:01;;;;;;;17.80;13.00;;;11.50;99.90;;;;;;5117774;28;20884;-61
2023/05/31 01:27:30;;;;;;;17.03;12.43;;;11.50;99.90;;;;;;5117765;28;20824;-60
2023/05/31 01:29:59;;;;;;;16.67;12.43;;;11.40;99.90;;;;;;5117507;28;20780;-60
2023/05/31 01:32:28;;;;;;;16.77;11.57;;;11.40;99.90;;;;;;5117839;28;20464;-60
2023/05/31 01:34:55;;;;;;;18.10;12.03;;;11.40;1.00;;;;;;5117747;28;20880;-61
2023/05/31 01:37:22;;;;;;;15.10;12.27;;;11.30;1.00;;;;;;5118005;28;20551;-61
2023/05/31 01:39:51;;;;;;;18.07;13.23;;;11.40;1.00;;;;;;5117660;28;20566;-61
2023/05/31 01:42:20;;;;;;;14.20;10.90;;;11.40;1.00;;;;;;5117922;28;20455;-60
2023/05/31 01:44:50;;;;;;;14.20;12.70;;;11.40;1.00;;;;;;5117495;28;20451;-60
2023/05/31 01:47:19;;;;;;;19.93;13.33;;;11.40;1.00;;;;;;5117670;28;20438;-61
2023/05/31 01:49:47;;;;;;;15.70;12.40;;;11.30;1.00;;;;;;5117529;28;20460;-61
2023/05/31 01:52:18;;;;;;;16.03;11.47;;;11.30;1.00;;;;;;5118079;28;20621;-61
2023/05/31 01:54:45;;;;;;;17.50;12.10;;;11.20;1.00;;;;;;5117803;28;20456;-61
2023/05/31 01:57:14;;;;;;;18.00;12.33;;;11.20;1.00;;;;;;5117602;28;20455;-61
2023/05/31 01:59:42;;;;;;;16.53;12.00;;;11.20;1.00;;;;;;5117797;28;20458;-61
2023/05/31 02:02:11;;;;;;;16.13;12.53;;;11.20;1.00;;;;;;5116747;28;20475;-61
2023/05/31 02:04:38;;;;;;;25.23;13.50;;;11.20;1.00;;;;;;5118518;28;20537;-61
2023/05/31 02:07:08;;;;;;;16.10;12.73;;;11.10;1.00;;;;;;5121619;28;20486;-61
2023/05/31 02:09:35;;;;;;;16.23;12.27;;;11.10;1.00;;;;;;5121466;28;20510;-62
2023/05/31 02:12:03;;;;;;;16.50;12.67;;;11.10;1.00;;;;;;5121790;28;20491;-61
2023/05/31 02:14:30;;;;;;;16.90;12.13;;;11.00;14.50;;;;;;5121829;28;20558;-60
2023/05/31 02:16:57;;;;;;;17.60;12.73;;;11.00;99.90;;;;;;5121156;28;20491;-60
2023/05/31 02:19:26;;;;;;;19.20;13.00;;;11.00;99.90;;;;;;5121244;28;20455;-61
2023/05/31 02:21:53;;;;;;;17.43;13.00;;;11.00;99.90;;;;;;5121721;28;20917;-61
2023/05/31 02:24:20;;;;;;;17.57;13.13;;;11.00;99.90;;;;;;5121380;28;20759;-62
2023/05/31 02:26:47;;;;;;;15.90;12.17;;;11.00;1.00;;;;;;5120462;28;20466;-62
2023/05/31 02:29:15;;;;;;;16.67;12.73;;;11.00;1.00;;;;;;5121218;28;20474;-61
2023/05/31 02:31:42;;;;;;;17.73;13.90;;;11.00;1.00;;;;;;5121059;28;20510;-61
2023/05/31 02:34:09;;;;;;;16.83;13.40;;;10.90;1.00;;;;;;5121739;27;20486;-61
2023/05/31 02:36:37;;;;;;;21.20;13.70;;;10.90;54.80;;;;;;5120634;28;20467;-63
2023/05/31 02:39:05;;;;;;;15.80;12.53;;;10.90;99.90;;;;;;5121145;28;20561;-60
2023/05/31 02:41:32;;;;;;;19.70;14.03;;;10.80;99.90;;;;;;5121109;28;20550;-60
2023/05/31 02:43:59;;;;;;;20.33;15.10;;;10.90;99.90;;;;;;5121018;28;20469;-61
2023/05/31 02:46:26;;;;;;;19.73;15.07;;;10.80;1.00;;;;;;5121525;28;20461;-62
2023/05/31 02:48:53;;;;;;;19.97;14.60;;;10.80;1.00;;;;;;5120902;28;20872;-62
2023/05/31 02:51:20;;;;;;;22.60;14.50;;;10.80;1.00;;;;;;5120628;28;21018;-61
2023/05/31 02:53:49;;;;;;;19.17;15.07;;;10.80;1.00;;;;;;5120785;28;20470;-62
2023/05/31 02:56:16;;;;;;;17.50;14.07;;;10.80;1.00;;;;;;5120226;28;20525;-61
2023/05/31 02:58:43;;;;;;;17.83;13.27;;;10.70;1.00;;;;;;5120744;27;20887;-62
2023/05/31 03:01:11;;;;;;;18.73;14.30;;;10.80;1.00;;;;;;5120210;28;20900;-60
2023/05/31 03:03:38;;;;;;;15.77;13.13;;;10.80;1.00;;;;;;5120649;28;20830;-60
2023/05/31 03:06:05;;;;;;;18.37;14.50;;;10.80;1.00;;;;;;5120720;28;20759;-60
2023/05/31 03:08:32;;;;;;;16.83;13.23;;;10.80;1.00;;;;;;5120590;28;20546;-60
2023/05/31 03:11:01;;;;;;;16.23;13.97;;;10.80;1.00;;;;;;5120158;28;20498;-60
2023/05/31 03:13:28;;;;;;;20.50;13.87;;;10.80;1.00;;;;;;5120502;28;20502;-60
2023/05/31 03:15:56;;;;;;;16.50;13.07;;;10.70;1.00;;;;;;5119203;28;20466;-60
2023/05/31 03:18:23;;;;;;;19.00;13.70;;;10.70;1.00;;;;;;5119824;28;20558;-60
2023/05/31 03:20:50;;;;;;;20.07;13.73;;;10.70;1.00;;;;;;5119685;28;20456;-60
2023/05/31 03:23:17;;;;;;;17.70;14.40;;;10.70;1.00;;;;;;5120222;28;20459;-60
2023/05/31 03:25:44;;;;;;;17.57;13.10;;;10.70;1.00;;;;;;5119982;28;20558;-60
2023/05/31 03:28:13;;;;;;;16.27;12.93;;;10.60;1.00;;;;;;5120374;28;20615;-60
2023/05/31 03:30:40;;;;;;;18.17;13.30;;;10.60;1.00;;;;;;5119428;28;20530;-60
2023/05/31 03:33:13;;;;;;;18.47;12.77;;;10.60;1.00;;;;;;5118448;28;20554;-60
2023/05/31 03:35:41;;;;;;;17.80;13.00;;;10.60;57.60;;;;;;5119740;28;20470;-60
2023/05/31 03:38:08;;;;;;;16.93;13.33;;;10.60;99.90;;;;;;5119990;28;20466;-60
2023/05/31 03:40:35;;;;;;;16.17;13.67;;;10.60;94.50;;;;;;5119963;28;20460;-59
2023/05/31 03:43:02;;;;;;;20.80;15.40;;;10.60;99.60;;;;;;5119588;28;20459;-61
2023/05/31 03:45:31;;;;;;;18.60;12.83;;;10.60;99.90;;;;;;5118049;28;21095;-61
2023/05/31 03:47:58;;;;;;;17.30;13.63;;;10.60;99.90;;;;;;5118032;28;20562;-60
2023/05/31 03:50:25;;;;;;;16.63;13.20;;;10.60;99.90;;;;;;5118007;28;20851;-60
2023/05/31 03:52:52;;;;;;;17.57;12.47;;;10.60;99.90;;;;;;5117681;28;20470;-60
2023/05/31 03:55:20;;;;;;;17.80;13.40;;;10.70;99.90;;;;;;5117830;28;20459;-60
2023/05/31 03:57:47;;;;;;;18.83;13.13;;;10.60;99.90;;;;;;5117834;28;20471;-60
2023/05/31 04:00:16;;;;;;;17.00;12.80;;;10.70;88.30;;;;;;5119321;28;20550;-60
2023/05/31 04:02:44;;;;;;;16.87;12.57;;;10.70;79.90;;;;;;5118980;28;20842;-61
2023/05/31 04:05:11;;;;;;;25.83;13.40;;;10.60;54.00;;;;;;5119518;28;20894;-60
2023/05/31 04:07:38;;;;;;;18.27;12.70;;;10.70;53.70;;;;;;5118806;28;20466;-60
2023/05/31 04:10:07;;;;;;;16.73;13.47;;;10.70;31.40;;;;;;5119511;28;20463;-60
2023/05/31 04:12:34;;;;;;;14.60;12.33;;;10.70;16.10;;;;;;5119302;28;21079;-60
2023/05/31 04:15:02;;;;;;;17.63;12.70;;;10.80;1.00;;;;;;5118802;28;20566;-60
2023/05/31 04:17:29;;;;;;;16.10;12.20;;;10.80;1.00;;;;;;5119127;28;20901;-59
2023/05/31 04:19:58;;;;;;;17.93;12.80;;;10.80;1.00;;;;;;5119219;28;20469;-60
2023/05/31 04:22:25;;;;;;;18.00;12.80;;;10.90;1.00;;;;;;5119120;28;20474;-60
2023/05/31 04:24:52;;;;;;;15.57;13.43;;;10.90;1.00;;;;;;5118762;28;20566;-59
2023/05/31 04:27:20;;;;;;;18.90;13.33;;;10.90;1.00;;;;;;5118537;28;20483;-60
2023/05/31 04:29:47;;;;;;;20.73;13.10;;;11.00;1.00;;;;;;5118878;28;20965;-60
2023/05/31 04:32:14;;;;;;;14.97;12.47;;;10.90;1.00;;;;;;5119005;28;20530;-60
2023/05/31 04:34:42;;;;;;;16.10;12.40;;;11.00;1.00;;;;;;5118162;28;20459;-60
2023/05/31 04:37:11;;;;;;;22.30;14.87;;;11.00;1.00;;;;;;5118645;28;20550;-60
2023/05/31 04:39:38;;;;;;;16.60;13.77;;;11.00;1.00;;;;;;5118659;28;20459;-60
2023/05/31 04:42:11;;;;;;;20.13;13.90;;;11.10;1.00;;;;;;5118611;28;20524;-60
2023/05/31 04:44:38;;;;;;;15.33;13.73;;;11.10;1.00;;;;;;5118998;28;20527;-61
2023/05/31 04:47:06;;;;;;;19.10;13.57;;;11.20;1.00;;;;;;5118481;28;20467;-60
2023/05/31 04:49:33;;;;;;;20.60;13.57;;;11.20;1.00;;;;;;5118786;28;20516;-60
2023/05/31 04:52:01;;;;;;;16.63;13.10;;;11.30;1.00;;;;;;5118493;28;20487;-60
2023/05/31 04:54:30;;;;;;;17.10;13.00;;;11.40;1.00;;;;;;5118774;28;20459;-60
2023/05/31 04:56:59;;;;;;;19.20;13.23;;;11.40;1.00;;;;;;5118483;28;20463;-60
2023/05/31 04:59:26;;;;;;;15.70;12.00;;;11.50;1.00;;;;;;5118303;28;20805;-60
2023/05/31 05:01:54;;;;;;;16.03;12.80;;;11.50;1.00;;;;;;5117729;28;20518;-60
2023/05/31 05:04:21;;;;;;;15.30;13.40;;;11.60;1.00;;;;;;5117931;28;20464;-60
2023/05/31 05:06:49;;;;;;;15.93;12.90;;;11.60;1.00;;;;;;5118692;28;20479;-65
2023/05/31 05:09:17;;;;;;;17.13;13.73;;;11.60;1.00;;;;;;5117736;28;20493;-65
2023/05/31 05:11:45;;;;;;;15.90;12.80;;;11.70;1.00;;;;;;5117735;28;20465;-64
2023/05/31 05:14:13;;;;;;;18.70;13.43;;;11.70;1.00;;;;;;5117502;28;20517;-64
2023/05/31 05:16:40;;;;;;;13.33;11.93;;;11.80;1.00;;;;;;5117894;28;20487;-64
2023/05/31 05:19:07;;;;;;;16.57;13.20;;;11.90;99.90;;;;;;5118139;28;20464;-65
2023/05/31 05:21:34;;;;;;;17.57;12.73;;;12.00;99.90;;;;;;5118155;28;20822;-64
2023/05/31 05:24:02;;;;;;;14.97;12.87;;;12.10;99.90;;;;;;5117526;28;20911;-64
2023/05/31 05:26:29;;;;;;;14.20;12.70;;;12.20;99.90;;;;;;5118256;28;20871;-64
2023/05/31 05:28:58;;;;;;;17.50;13.27;;;12.30;99.90;;;;;;5117679;28;20460;-64
2023/05/31 05:31:25;;;;;;;15.93;12.60;;;12.40;74.70;;;;;;5117710;28;20487;-64
2023/05/31 05:33:52;;;;;;;15.80;12.93;;;12.50;99.90;;;;;;5116262;28;20512;-63
2023/05/31 05:36:19;;;;;;;17.13;12.30;;;12.70;49.10;;;;;;5117162;28;20550;-63
2023/05/31 05:38:48;;;;;;;14.93;12.37;;;12.90;1.00;;;;;;5116895;28;20468;-64
2023/05/31 05:41:15;;;;;;;16.03;11.80;;;13.10;1.00;;;;;;5118571;28;20463;-64
2023/05/31 05:43:42;;;;;;;13.00;11.27;;;13.30;99.90;;;;;;5117988;28;20463;-64
2023/05/31 05:46:11;;;;;;;18.07;10.93;;;13.60;99.90;;;;;;5119635;28;20755;-65
2023/05/31 05:48:38;;;;;;;14.47;10.60;;;13.80;1.00;;;;;;5119865;28;20922;-64
2023/05/31 05:51:05;;;;;;;14.30;11.73;;;14.00;99.90;;;;;;5119952;28;20520;-67
2023/05/31 05:53:33;;;;;;;10.80;9.70;;;14.20;99.90;;;;;;5121317;28;20451;-65
2023/05/31 05:56:00;;;;;;;13.13;10.97;;;14.30;95.80;;;;;;5121600;28;20470;-65
2023/05/31 05:58:27;;;;;;;14.60;10.63;;;14.50;99.90;;;;;;5119925;28;20459;-64
2023/05/31 06:00:55;;;;;;;14.47;11.10;;;14.70;93.40;;;;;;5120754;28;20463;-64
2023/05/31 06:03:24;;;;;;;10.57;9.47;;;14.90;1.00;;;;;;5118279;28;20536;-64
2023/05/31 06:05:51;;;;;;;10.67;9.57;;;15.10;1.00;;;;;;5118019;28;20474;-64
2023/05/31 06:08:18;;;;;;;11.80;8.90;;;15.20;99.90;;;;;;5110719;28;20919;-63
2023/05/31 06:10:45;;;;;;;11.90;9.47;;;15.50;99.90;;;;;;5104357;28;20551;-63
2023/05/31 06:13:13;;;;;;;13.00;9.17;;;15.70;99.90;;;;;;5115098;28;20510;-63
2023/05/31 06:15:40;;;;;;;11.30;9.70;;;15.70;99.90;;;;;;5115234;28;20455;-63
2023/05/31 06:18:08;;;;;;;15.03;9.80;;;16.00;99.90;;;;;;5115213;28;20844;-63
2023/05/31 06:20:36;;;;;;;12.17;9.20;;;15.90;1.00;;;;;;5115059;28;20971;-62
2023/05/31 06:23:04;;;;;;;11.57;9.43;;;16.30;1.00;;;;;;5115071;28;20455;-62
2023/05/31 06:25:31;;;;;;;12.87;9.53;;;16.60;99.90;;;;;;5114471;28;20579;-62
2023/05/31 06:27:58;;;;;;;9.33;8.43;;;16.80;99.90;;;;;;5115631;28;20543;-62
2023/05/31 06:30:26;;;;;;;13.03;10.10;;;17.10;97.10;;;;;;5115253;28;20459;-62
2023/05/31 06:32:53;;;;;;;12.33;9.87;;;17.30;7.90;;;;;;5115734;28;20490;-64
2023/05/31 06:35:20;;;;;;;10.33;9.30;;;17.50;1.00;;;;;;5117529;28;20458;-63
2023/05/31 06:37:51;;;;;;;11.10;8.57;;;17.60;1.00;;;;;;5116116;28;20879;-62
2023/05/31 06:40:18;;;;;;;12.30;8.97;;;17.90;1.00;;;;;;5115857;28;20779;-62
2023/05/31 06:42:45;;;;;;;9.47;7.63;;;18.20;1.00;;;;;;5115554;28;20455;-63
2023/05/31 06:45:13;;;;;;;10.00;9.00;;;18.40;1.00;;;;;;5117638;28;20903;-62
2023/05/31 06:47:40;;;;;;;12.17;8.80;;;18.60;99.90;;;;;;5117345;28;20880;-64
2023/05/31 06:50:07;;;;;;;12.43;8.53;;;18.70;99.90;;;;;;5116921;28;20461;-62
2023/05/31 06:52:35;;;;;;;10.13;7.97;;;18.90;99.90;;;;;;5120757;28;20527;-62
2023/05/31 06:55:04;;;;;;;8.80;7.40;;;18.90;99.90;;;;;;5120650;28;20581;-65
2023/05/31 06:57:31;;;;;;;12.37;8.20;;;19.30;99.90;;;;;;5120629;28;20960;-62
2023/05/31 06:59:58;;;;;;;8.50;7.53;;;19.40;99.90;;;;;;5119974;28;20814;-62
2023/05/31 07:02:27;;;;;;;9.73;7.93;;;19.40;99.90;;;;;;5120090;28;20785;-62
2023/05/31 07:04:54;;;;;;;8.80;7.40;;;19.60;99.90;;;;;;5121381;28;20466;-62
2023/05/31 07:07:21;;;;;;;14.50;7.03;;;19.60;99.90;;;;;;5118969;28;20459;-61
2023/05/31 07:09:50;;;;;;;9.93;7.33;;;19.90;99.90;;;;;;5119050;28;20528;-61
2023/05/31 07:12:19;;;;;;;14.13;7.80;;;20.20;99.90;;;;;;5118402;28;20505;-61
2023/05/31 07:14:47;;;;;;;11.07;7.50;;;20.20;99.90;;;;;;5117815;28;20456;-60
2023/05/31 07:17:14;;;;;;;9.20;6.97;;;20.50;99.90;;;;;;5118284;28;20460;-61
2023/05/31 07:19:45;;;;;;;11.93;7.13;;;20.60;99.90;;;;;;5117839;28;20466;-62
2023/05/31 07:22:14;;;;;;;9.77;7.10;;;20.80;99.90;;;;;;5118140;28;20518;-62
2023/05/31 07:24:42;;;;;;;7.50;6.67;;;21.00;99.90;;;;;;5118642;28;20459;-62
2023/05/31 07:27:09;;;;;;;7.40;6.70;;;21.30;99.90;;;;;;5117641;28;20460;-65
2023/05/31 07:29:38;;;;;;;10.87;7.57;;;21.50;99.90;;;;;;5117001;28;20529;-62
2023/05/31 07:32:06;;;;;;;9.93;7.87;;;21.50;99.90;;;;;;5117921;28;20598;-61
2023/05/31 07:34:34;;;;;;;7.93;6.47;;;21.50;85.00;;;;;;5117954;28;20494;-61
2023/05/31 07:37:01;;;;;;;7.20;6.50;;;21.10;10.80;;;;;;5117937;28;20826;-61
2023/05/31 07:39:31;;;;;;;11.13;6.63;;;21.60;78.50;;;;;;5118031;28;20455;-63
2023/05/31 07:42:00;;;;;;;8.37;6.73;;;21.40;1.00;;;;;;5118423;28;20546;-61
2023/05/31 07:44:28;;;;;;;8.70;6.00;;;21.30;1.00;;;;;;5119174;28;20459;-61
2023/05/31 07:46:57;;;;;;;9.40;7.23;;;21.70;1.00;;;;;;5119521;28;20526;-61
2023/05/31 07:49:24;;;;;;;10.20;7.20;;;21.80;1.00;;;;;;5120162;28;20470;-61
2023/05/31 07:51:52;;;;;;;7.43;6.63;;;21.40;1.00;;;;;;5119401;28;20478;-61
2023/05/31 07:54:19;;;;;;;9.17;6.27;;;21.80;1.00;;;;;;5119628;28;20847;-61
2023/05/31 07:56:46;;;;;;;8.03;6.37;;;22.00;1.00;;;;;;5119365;27;20459;-61
2023/05/31 07:59:14;;;;;;;7.97;5.73;;;22.50;1.00;;;;;;5119327;28;20498;-61
2023/05/31 08:01:41;;;;;;;7.30;6.60;;;22.80;1.00;;;;;;5118809;28;20487;-60
2023/05/31 08:04:11;;;;;;;7.07;6.17;;;22.30;1.00;;;;;;5119030;28;20464;-60
2023/05/31 08:06:41;;;;;;;8.30;6.53;;;22.40;99.90;;;;;;5119512;28;20514;-61
2023/05/31 08:09:09;;;;;;;9.47;6.37;;;22.80;1.00;;;;;;5118928;28;20558;-61
2023/05/31 08:11:36;;;;;;;8.13;5.80;;;23.00;1.00;;;;;;5117981;28;20980;-60
2023/05/31 08:14:04;;;;;;;7.30;5.40;;;23.40;99.90;;;;;;5118336;28;20549;-62
2023/05/31 08:16:33;;;;;;;7.43;6.60;;;23.40;99.90;;;;;;5118563;28;20462;-61
2023/05/31 08:19:01;;;;;;;6.53;5.60;;;23.80;99.90;;;;;;5119230;28;20483;-61
2023/05/31 08:21:30;;;;;;;6.90;6.00;;;23.80;99.90;;;;;;5117994;28;20466;-61
2023/05/31 08:23:57;;;;;;;7.40;5.87;;;23.40;99.90;;;;;;5118999;28;20455;-62
2023/05/31 08:26:25;;;;;;;22.87;7.27;;;23.10;99.90;;;;;;5118999;28;20464;-61
2023/05/31 08:28:53;;;;;;;7.13;6.43;;;23.30;99.90;;;;;;5117767;28;20493;-61
2023/05/31 08:31:21;;;;;;;8.60;5.47;;;23.30;99.90;;;;;;5117678;28;20559;-61
2023/05/31 08:33:56;;;;;;;8.50;6.10;;;23.90;99.90;;;;;;5116482;28;20495;-61
2023/05/31 08:36:24;;;;;;;10.67;6.87;;;24.00;99.90;;;;;;5118593;28;20481;-61
2023/05/31 08:38:52;;;;;;;6.07;5.47;;;24.30;99.90;;;;;;5118783;28;20534;-61
2023/05/31 08:41:20;;;;;;;6.57;5.13;;;24.30;99.90;;;;;;5118756;28;20466;-61
2023/05/31 08:43:47;;;;;;;11.13;6.57;;;24.70;99.90;;;;;;5118436;28;20467;-61
2023/05/31 08:46:16;;;;;;;8.63;5.20;;;24.70;99.90;;;;;;5118532;28;20459;-61
2023/05/31 08:48:50;;;;;;;7.60;5.97;;;25.30;99.90;;;;;;5117524;28;20578;-61
2023/05/31 08:51:18;;;;;;;8.30;5.60;;;25.00;94.30;;;;;;5116967;28;20462;-61
2023/05/31 08:53:47;;;;;;;13.33;6.80;;;24.80;91.50;;;;;;5116782;28;20953;-61
2023/05/31 08:56:16;;;;;;;7.47;6.00;;;24.80;33.50;;;;;;5117135;28;20460;-61
2023/05/31 08:58:44;;;;;;;22.60;6.67;;;25.10;28.90;;;;;;5116622;28;20553;-61
2023/05/31 09:01:13;;;;;;;8.50;5.50;;;25.10;9.60;;;;;;5116504;28;20504;-61
2023/05/31 09:03:43;;;;;;;7.17;5.37;;;24.50;1.00;;;;;;5117049;28;20455;-61
2023/05/31 09:06:10;;;;;;;5.90;5.27;;;24.10;1.00;;;;;;5117959;28;20509;-60
2023/05/31 09:08:38;;;;;;;6.77;5.80;;;24.90;1.00;;;;;;5118066;28;20455;-62
2023/05/31 09:11:07;;;;;;;7.57;5.40;;;25.10;1.00;;;;;;5118415;28;20459;-61
2023/05/31 09:13:36;;;;;;;7.93;5.47;;;25.20;1.00;;;;;;5117675;28;20594;-61
2023/05/31 09:16:03;;;;;;;5.43;4.93;;;25.50;1.00;;;;;;5118038;28;20892;-61
2023/05/31 09:18:38;;;;;;;7.10;5.40;;;26.10;1.00;;;;;;5118339;28;20550;-62
2023/05/31 09:21:09;;;;;;;5.97;5.23;;;25.60;1.00;;;;;;5118265;28;20579;-62
2023/05/31 09:23:37;;;;;;;6.50;4.90;;;26.10;1.00;;;;;;5117545;28;20788;-62
2023/05/31 09:26:07;;;;;;;6.60;5.30;;;26.20;1.00;;;;;;5118001;28;20465;-61
2023/05/31 09:28:36;;;;;;;6.53;5.17;;;25.80;1.00;;;;;;5118308;28;20434;-62
2023/05/31 09:31:04;;;;;;;4.97;4.43;;;25.60;1.00;;;;;;5117754;28;20474;-61
2023/05/31 09:33:43;;;;;;;5.53;4.07;;;25.60;1.00;;;;;;5116896;28;20527;-61
2023/05/31 09:36:11;;;;;;;6.40;4.60;;;26.10;1.00;;;;;;5117714;28;20463;-61
2023/05/31 09:38:38;;;;;;;4.97;4.47;;;26.50;1.00;;;;;;5115601;28;20442;-61
2023/05/31 09:41:14;;;;;;;6.10;5.03;;;26.50;1.00;;;;;;5117211;28;20463;-61
2023/05/31 09:43:43;;;;;;;5.40;4.90;;;26.70;1.00;;;;;;5117654;28;20465;-61
2023/05/31 09:46:15;;;;;;;7.60;5.07;;;27.00;1.00;;;;;;5116127;28;20558;-62
2023/05/31 09:48:42;;;;;;;8.00;4.33;;;27.20;1.00;;;;;;5116008;28;20550;-61
2023/05/31 09:51:10;;;;;;;5.17;4.40;;;27.30;1.00;;;;;;5116470;28;20466;-61
2023/05/31 09:53:39;;;;;;;8.40;5.40;;;27.50;1.00;;;;;;5115922;28;20491;-65
2023/05/31 09:56:10;;;;;;;6.10;5.37;;;27.70;1.00;;;;;;5116270;28;20807;-63
2023/05/31 09:58:37;;;;;;;6.60;5.63;;;27.70;1.00;;;;;;5116522;28;20451;-62
2023/05/31 10:01:06;;;;;;;5.20;4.70;;;27.90;1.00;;;;;;5115474;28;20459;-65
2023/05/31 10:03:34;;;;;;;5.77;5.17;;;27.90;1.00;;;;;;5113821;28;20539;-61
2023/05/31 10:06:02;;;;;;;5.67;5.10;;;28.00;1.00;;;;;;5115325;28;20455;-62
2023/05/31 10:08:31;;;;;;;5.40;4.90;;;27.80;1.00;;;;;;5115563;28;20460;-63
2023/05/31 10:11:00;;;;;;;5.90;4.30;;;27.60;1.00;;;;;;5115464;28;20451;-59
2023/05/31 10:13:29;;;;;;;6.13;4.27;;;27.10;1.00;;;;;;5115643;28;20466;-61
2023/05/31 10:15:58;;;;;;;4.80;4.03;;;27.20;1.00;;;;;;5115798;28;20455;-61
2023/05/31 10:18:30;;;;;;;6.23;4.77;;;27.30;1.00;;;;;;5115929;28;20593;-60
2023/05/31 10:21:02;;;;;;;5.87;4.87;;;27.70;1.00;;;;;;5115838;28;20469;-60
2023/05/31 10:23:31;;;;;;;7.83;3.80;;;28.10;1.00;;;;;;5115907;28;20757;-60
2023/05/31 10:26:08;;;;;;;6.87;3.93;;;28.30;1.00;;;;;;5117016;28;20507;-60
2023/05/31 10:28:38;;;;;;;5.23;4.73;;;27.70;1.00;;;;;;5115116;28;20476;-59
2023/05/31 10:31:06;;;;;;;4.50;3.80;;;27.70;1.00;;;;;;5099179;28;20464;-62
2023/05/31 10:33:34;;;;;;;4.50;4.10;;;27.50;1.00;;;;;;5098484;28;20488;-60
2023/05/31 10:36:02;;;;;;;5.90;4.03;;;27.60;1.00;;;;;;5099499;28;20947;-60
2023/05/31 10:38:33;;;;;;;4.33;3.93;;;28.10;1.00;;;;;;5100913;28;20487;-61
2023/05/31 10:41:06;;;;;;;6.20;4.03;;;27.90;1.00;;;;;;5102554;28;20475;-59
2023/05/31 10:43:39;;;;;;;7.30;4.23;;;28.10;1.00;;;;;;5121950;28;20481;-59
2023/05/31 10:46:10;;;;;;;5.10;4.03;;;28.20;1.00;;;;;;5109351;28;20476;-61
2023/05/31 10:48:47;;;;;;;6.57;5.00;;;28.20;99.90;;;;;;5108516;28;20471;-62
2023/05/31 10:51:17;;;;;;;5.67;4.23;;;28.50;1.00;;;;;;5119018;28;20779;-59
2023/05/31 10:53:46;;;;;;;4.90;4.50;;;28.30;99.90;;;;;;5119694;27;20552;-60
2023/05/31 10:56:15;;;;;;;6.00;4.63;;;28.20;99.90;;;;;;5118653;28;20465;-61
2023/05/31 10:58:44;;;;;;;8.27;4.20;;;28.50;99.90;;;;;;5118271;28;20935;-59
2023/05/31 11:01:20;;;;;;;5.63;5.07;;;28.10;99.90;;;;;;5117934;28;20499;-59
2023/05/31 11:03:51;;;;;;;4.80;3.90;;;28.30;99.90;;;;;;5118589;28;20527;-61
2023/05/31 11:06:24;;;;;;;5.80;4.50;;;28.30;99.90;;;;;;5119003;28;20590;-60
2023/05/31 11:09:01;;;;;;;6.47;4.57;;;28.80;99.90;;;;;;5118828;27;20463;-59
2023/05/31 11:11:29;;;;;;;5.33;3.77;;;27.60;99.90;;;;;;5119160;27;20479;-59
2023/05/31 11:14:01;;;;;;;4.37;3.93;;;28.00;99.90;;;;;;5119502;28;20570;-59
2023/05/31 11:16:31;;;;;;;11.00;4.90;;;28.70;99.90;;;;;;5107992;28;20543;-59
2023/05/31 11:19:07;;;;;;;7.50;4.33;;;27.90;99.90;;;;;;5118748;28;20902;-59
2023/05/31 11:21:47;;;;;;;5.43;4.67;;;29.00;99.90;;;;;;5118971;28;20463;-60
2023/05/31 11:24:26;;;;;;;6.07;4.37;;;29.40;99.90;;;;;;5118991;28;20459;-59
2023/05/31 11:26:54;;;;;;;4.07;3.70;;;28.60;99.90;;;;;;5117925;28;20458;-59
2023/05/31 11:29:21;;;;;;;5.00;4.40;;;28.40;99.90;;;;;;5119358;28;20463;-59
2023/05/31 11:32:01;;;;;;;4.60;3.90;;;28.30;99.90;;;;;;5119103;28;20464;-60
2023/05/31 11:34:33;;;;;;;5.53;4.03;;;28.30;99.90;;;;;;5119618;28;20874;-59
2023/05/31 11:37:02;;;;;;;5.93;4.50;;;28.50;99.90;;;;;;5119497;27;20904;-61
2023/05/31 11:39:30;;;;;;;5.60;4.70;;;28.20;99.90;;;;;;5118404;28;20825;-59
2023/05/31 11:41:58;;;;;;;6.17;4.67;;;28.50;99.90;;;;;;5118525;28;20463;-58
2023/05/31 11:44:30;;;;;;;7.50;4.53;;;28.50;99.90;;;;;;5118586;28;20502;-59
2023/05/31 11:47:04;;;;;;;6.90;3.93;;;28.40;99.90;;;;;;5117654;28;20560;-59
2023/05/31 11:49:33;;;;;;;4.10;3.70;;;28.50;99.90;;;;;;5117879;28;20491;-60
2023/05/31 11:52:01;;;;;;;5.23;4.60;;;27.70;99.90;;;;;;5118172;28;20465;-58
2023/05/31 11:54:30;;;;;;;4.70;4.17;;;27.10;99.90;;;;;;5117101;28;20574;-59
2023/05/31 11:57:06;;;;;;;6.27;4.10;;;27.60;99.90;;;;;;5117433;28;20451;-65
2023/05/31 11:59:33;;;;;;;8.70;5.57;;;28.20;99.90;;;;;;5119327;28;20773;-60
2023/05/31 12:02:02;;;;;;;6.70;4.70;;;28.40;99.90;;;;;;5117615;28;20490;-59
2023/05/31 12:04:36;;;;;;;5.00;3.93;;;29.10;99.90;;;;;;5117212;28;20839;-61
2023/05/31 12:07:04;;;;;;;5.03;3.57;;;29.30;99.90;;;;;;5116474;28;20470;-60
2023/05/31 12:09:33;;;;;;;6.57;4.10;;;29.30;99.90;;;;;;5118371;28;20454;-62
2023/05/31 12:12:03;;;;;;;7.07;4.33;;;29.40;99.90;;;;;;5118353;28;20493;-61
2023/05/31 12:14:31;;;;;;;6.10;3.97;;;29.10;99.90;;;;;;5118118;28;21002;-59
2023/05/31 12:17:01;;;;;;;5.20;4.30;;;29.70;99.90;;;;;;5118610;28;20491;-59
2023/05/31 12:19:29;;;;;;;6.80;4.00;;;29.80;99.90;;;;;;5119513;28;20491;-58
2023/05/31 12:21:57;;;;;;;5.97;4.60;;;29.20;99.90;;;;;;5119304;28;20491;-57
2023/05/31 12:24:25;;;;;;;4.47;4.07;;;28.30;99.90;;;;;;5118111;28;20861;-58
2023/05/31 12:26:55;;;;;;;6.53;4.00;;;28.30;99.90;;;;;;5117346;28;20491;-58
2023/05/31 12:29:28;;;;;;;5.43;4.00;;;28.80;99.90;;;;;;5116677;28;20551;-58
2023/05/31 12:32:02;;;;;;;6.47;4.43;;;29.50;99.90;;;;;;5116875;28;20932;-59
2023/05/31 12:34:30;;;;;;;6.20;3.67;;;29.80;99.90;;;;;;5115366;28;20492;-58
2023/05/31 12:37:03;;;;;;;12.57;4.23;;;29.60;99.90;;;;;;5114616;28;20517;-59
2023/05/31 12:39:31;;;;;;;5.00;3.80;;;29.70;99.90;;;;;;5113374;28;20539;-58
2023/05/31 12:41:59;;;;;;;4.57;4.17;;;29.50;99.90;;;;;;5112534;27;20466;-59
2023/05/31 12:44:27;;;;;;;4.20;3.87;;;28.80;99.90;;;;;;5116482;27;20463;-58
2023/05/31 12:47:01;;;;;;;5.73;3.90;;;29.20;99.90;;;;;;5113294;28;20503;-58